createdAt,value
2018-03-16T00:00:35.520Z,92.00
2018-03-16T00:03:03.887Z,91.90
2018-03-16T00:05:32.167Z,91.90
2018-03-16T00:08:00.452Z,91.90
2018-03-16T00:10:28.739Z,91.90
2018-03-16T00:12:57.011Z,92.00
2018-03-16T00:15:26.060Z,92.50
2018-03-16T00:17:54.339Z,92.20
2018-03-16T00:20:22.639Z,92.20
2018-03-16T00:22:51.016Z,92.20
2018-03-16T00:25:19.400Z,92.20
2018-03-16T00:27:49.203Z,92.00
2018-03-16T00:30:17.498Z,91.90
2018-03-16T00:32:45.859Z,91.80
2018-03-16T00:35:14.231Z,91.80
2018-03-16T00:37:42.987Z,91.90
2018-03-16T00:40:11.314Z,92.00
2018-03-16T00:42:39.611Z,92.00
2018-03-16T00:45:08.656Z,92.20
2018-03-16T00:47:37.047Z,92.20
2018-03-16T00:50:05.731Z,92.20
2018-03-16T00:52:34.112Z,92.10
2018-03-16T00:55:02.386Z,92.10
2018-03-16T00:57:30.672Z,92.00
2018-03-16T00:59:58.941Z,92.10
2018-03-16T01:02:27.318Z,92.20
2018-03-16T01:04:55.594Z,92.10
2018-03-16T01:07:23.890Z,92.30
2018-03-16T01:09:52.939Z,92.10
2018-03-16T01:12:21.200Z,92.10
2018-03-16T01:14:49.486Z,92.10
2018-03-16T01:17:17.772Z,92.00
2018-03-16T01:19:46.061Z,92.00
2018-03-16T01:22:14.353Z,92.10
2018-03-16T01:24:42.639Z,92.10
2018-03-16T01:27:11.683Z,92.10
2018-03-16T01:29:39.983Z,92.10
2018-03-16T01:32:08.266Z,92.10
2018-03-16T01:34:36.543Z,92.20
2018-03-16T01:37:04.920Z,92.20
2018-03-16T01:39:33.209Z,92.20
2018-03-16T01:42:02.263Z,92.60
2018-03-16T01:44:30.571Z,92.30
2018-03-16T01:46:58.848Z,92.20
2018-03-16T01:49:27.147Z,92.20
2018-03-16T01:51:56.182Z,92.20
2018-03-16T01:54:24.462Z,92.20
2018-03-16T01:56:52.743Z,92.20
2018-03-16T01:59:21.028Z,92.10
2018-03-16T02:01:49.308Z,92.20
2018-03-16T02:04:17.691Z,92.10
2018-03-16T02:06:46.055Z,92.00
2018-03-16T02:09:14.438Z,92.00
2018-03-16T02:11:42.730Z,92.30
2018-03-16T02:14:11.086Z,92.10
2018-03-16T02:16:40.091Z,92.10
2018-03-16T02:19:08.367Z,92.00
2018-03-16T02:21:36.635Z,92.00
2018-03-16T02:24:05.019Z,92.20
2018-03-16T02:26:33.393Z,92.10
2018-03-16T02:29:01.767Z,91.90
2018-03-16T02:31:30.152Z,91.90
2018-03-16T02:33:58.527Z,91.80
2018-03-16T02:36:26.904Z,91.90
2018-03-16T02:38:55.192Z,91.90
2018-03-16T02:41:23.545Z,91.80
2018-03-16T02:43:51.826Z,92.00
2018-03-16T02:46:20.105Z,92.00
2018-03-16T02:48:48.388Z,92.00
2018-03-16T02:51:16.748Z,91.90
2018-03-16T02:53:45.038Z,91.90
2018-03-16T02:56:13.308Z,91.80
2018-03-16T02:58:41.722Z,91.90
2018-03-16T03:01:10.800Z,91.90
2018-03-16T03:03:39.198Z,91.90
2018-03-16T03:06:07.545Z,91.90
2018-03-16T03:08:35.832Z,91.90
2018-03-16T03:11:04.919Z,91.70
2018-03-16T03:13:33.203Z,91.90
2018-03-16T03:16:01.491Z,91.90
2018-03-16T03:18:30.539Z,92.00
2018-03-16T03:20:58.839Z,92.00
2018-03-16T03:23:27.127Z,92.10
2018-03-16T03:25:55.489Z,92.10
2018-03-16T03:28:23.868Z,92.40
2018-03-16T03:30:53.655Z,92.40
2018-03-16T03:33:21.933Z,92.40
2018-03-16T03:35:50.492Z,92.30
2018-03-16T03:38:18.815Z,92.30
2018-03-16T03:40:47.104Z,92.40
2018-03-16T03:43:15.380Z,92.40
2018-03-16T03:45:44.456Z,92.40
2018-03-16T03:48:12.831Z,92.40
2018-03-16T03:50:41.211Z,92.30
2018-03-16T03:53:09.592Z,92.10
2018-03-16T03:55:39.504Z,92.20
2018-03-16T03:58:07.884Z,92.20
2018-03-16T04:00:36.265Z,92.20
2018-03-16T04:03:04.637Z,92.30
2018-03-16T04:05:34.433Z,92.20
2018-03-16T04:08:02.717Z,92.20
2018-03-16T04:10:31.101Z,92.20
2018-03-16T04:12:59.389Z,92.20
2018-03-16T04:15:27.668Z,92.30
2018-03-16T04:17:56.723Z,92.70
2018-03-16T04:20:25.025Z,92.40
2018-03-16T04:22:54.815Z,92.20
2018-03-16T04:25:23.112Z,92.20
2018-03-16T04:27:51.420Z,92.20
2018-03-16T04:30:20.472Z,92.30
2018-03-16T04:32:48.756Z,92.30
2018-03-16T04:35:17.131Z,92.40
2018-03-16T04:37:46.231Z,92.50
2018-03-16T04:40:14.511Z,92.50
2018-03-16T04:42:42.792Z,92.60
2018-03-16T04:45:11.081Z,92.60
2018-03-16T04:47:40.155Z,92.50
2018-03-16T04:50:08.532Z,92.50
2018-03-16T04:52:36.813Z,92.60
2018-03-16T04:55:05.091Z,92.60
2018-03-16T04:57:33.456Z,92.70
2018-03-16T05:00:01.751Z,92.90
2018-03-16T05:02:30.807Z,92.70
2018-03-16T05:04:59.074Z,92.70
2018-03-16T05:07:27.363Z,92.80
2018-03-16T05:09:55.644Z,92.90
2018-03-16T05:12:24.028Z,92.90
2018-03-16T05:14:52.406Z,93.30
2018-03-16T05:17:20.698Z,93.00
2018-03-16T05:19:49.062Z,93.00
2018-03-16T05:22:17.359Z,93.10
2018-03-16T05:24:46.403Z,93.30
2018-03-16T05:27:14.703Z,93.30
2018-03-16T05:29:43.075Z,93.40
2018-03-16T05:32:11.381Z,93.50
2018-03-16T05:34:40.455Z,93.70
2018-03-16T05:37:08.732Z,93.60
2018-03-16T05:39:37.783Z,93.80
2018-03-16T05:42:06.409Z,93.90
2018-03-16T05:44:34.793Z,93.90
2018-03-16T05:47:03.072Z,94.10
2018-03-16T05:49:31.352Z,94.30
2018-03-16T05:52:00.085Z,94.40
2018-03-16T05:54:28.396Z,94.40
2018-03-16T05:56:56.880Z,94.60
2018-03-16T05:59:25.361Z,94.80
2018-03-16T06:01:53.623Z,94.90
2018-03-16T06:04:21.921Z,95.10
2018-03-16T06:06:50.905Z,95.40
2018-03-16T06:09:19.180Z,95.70
2018-03-16T06:11:47.559Z,95.70
2018-03-16T06:14:15.835Z,95.70
2018-03-16T06:16:44.204Z,95.80
2018-03-16T06:19:12.485Z,96.00
2018-03-16T06:21:40.761Z,96.10
2018-03-16T06:24:09.127Z,96.20
2018-03-16T06:26:37.512Z,96.20
2018-03-16T06:29:05.898Z,96.30
2018-03-16T06:31:34.168Z,96.40
2018-03-16T06:34:02.448Z,96.50
2018-03-16T06:36:32.236Z,96.60
2018-03-16T06:39:00.512Z,96.50
2018-03-16T06:41:28.801Z,96.60
2018-03-16T06:43:57.080Z,96.70
2018-03-16T06:46:25.363Z,96.80
2018-03-16T06:48:53.643Z,96.80
2018-03-16T06:51:21.920Z,97.00
2018-03-16T06:53:50.987Z,97.30
2018-03-16T06:56:19.380Z,97.30
2018-03-16T06:58:47.663Z,97.40
2018-03-16T07:01:16.020Z,97.50
2018-03-16T07:03:44.336Z,97.60
2018-03-16T07:06:13.404Z,97.60
2018-03-16T07:08:41.780Z,97.60
2018-03-16T07:11:10.060Z,97.60
2018-03-16T07:13:38.409Z,97.50
2018-03-16T07:16:06.692Z,97.50
2018-03-16T07:18:34.986Z,97.50
2018-03-16T07:21:03.274Z,97.50
2018-03-16T07:23:31.552Z,97.50
2018-03-16T07:26:00.634Z,97.70
2018-03-16T07:28:28.925Z,97.50
2018-03-16T07:30:58.077Z,97.50
2018-03-16T07:33:26.376Z,97.50
2018-03-16T07:35:54.752Z,97.60
2018-03-16T07:38:23.134Z,97.60
2018-03-16T07:40:51.503Z,97.70
2018-03-16T07:43:19.888Z,97.70
2018-03-16T07:45:53.912Z,97.70
2018-03-16T07:48:22.208Z,97.70
2018-03-16T07:50:50.560Z,97.70
2018-03-16T07:53:18.928Z,97.60
2018-03-16T07:55:47.359Z,97.70
2018-03-16T07:58:15.887Z,97.70
2018-03-16T08:00:44.230Z,97.60
2018-03-16T08:03:12.684Z,97.60
2018-03-16T08:05:42.078Z,97.60
2018-03-16T08:08:11.192Z,97.60
2018-03-16T08:10:40.232Z,97.60
2018-03-16T08:13:08.520Z,97.60
2018-03-16T08:15:37.224Z,97.50
2018-03-16T08:18:06.304Z,97.60
2018-03-16T08:20:34.679Z,97.60
2018-03-16T08:23:03.055Z,97.50
2018-03-16T08:25:31.335Z,97.40
2018-03-16T08:27:59.743Z,97.40
2018-03-16T08:30:28.033Z,97.40
2018-03-16T08:32:56.468Z,97.50
2018-03-16T08:35:24.740Z,97.50
2018-03-16T08:37:53.023Z,97.60
2018-03-16T08:40:21.299Z,97.50
2018-03-16T08:42:49.584Z,97.50
2018-03-16T08:45:18.631Z,97.50
2018-03-16T08:47:47.099Z,97.50
2018-03-16T08:50:15.452Z,97.50
2018-03-16T08:52:43.808Z,97.60
2018-03-16T08:55:12.176Z,97.60
2018-03-16T08:57:40.456Z,97.50
2018-03-16T09:00:08.735Z,97.50
2018-03-16T09:02:37.099Z,97.40
2018-03-16T09:05:05.427Z,97.50
2018-03-16T09:07:33.699Z,97.50
2018-03-16T09:10:01.984Z,97.30
2018-03-16T09:12:30.342Z,97.40
2018-03-16T09:14:58.588Z,97.40
2018-03-16T09:17:27.638Z,97.40
2018-03-16T09:19:55.905Z,97.30
2018-03-16T09:22:24.487Z,97.30
2018-03-16T09:24:52.855Z,97.30
2018-03-16T09:27:21.140Z,97.30
2018-03-16T09:29:49.432Z,97.20
2018-03-16T09:32:17.827Z,97.00
2018-03-16T09:34:46.119Z,96.70
2018-03-16T09:37:14.495Z,96.70
2018-03-16T09:39:42.770Z,96.60
2018-03-16T09:42:11.147Z,96.50
2018-03-16T09:44:39.525Z,96.40
2018-03-16T09:47:07.810Z,96.30
2018-03-16T09:49:36.176Z,96.70
2018-03-16T09:52:04.443Z,96.20
2018-03-16T09:54:53.516Z,96.20
2018-03-16T09:57:21.893Z,96.10
2018-03-16T09:59:50.184Z,96.30
2018-03-16T10:02:18.651Z,96.30
2018-03-16T10:04:46.920Z,96.20
2018-03-16T10:07:15.300Z,95.90
2018-03-16T10:09:43.672Z,96.10
2018-03-16T10:12:12.052Z,96.10
2018-03-16T10:14:40.428Z,96.00
2018-03-16T10:17:08.710Z,95.90
2018-03-16T10:19:36.987Z,96.10
2018-03-16T10:22:05.366Z,96.30
2018-03-16T10:24:33.731Z,96.20
2018-03-16T10:27:01.998Z,95.90
2018-03-16T10:29:30.396Z,95.70
2018-03-16T10:31:58.664Z,95.60
2018-03-16T10:34:26.935Z,95.90
2018-03-16T10:36:55.211Z,96.00
2018-03-16T10:39:23.483Z,95.60
2018-03-16T10:41:51.767Z,95.60
2018-03-16T10:44:20.148Z,95.50
2018-03-16T10:46:48.724Z,95.60
2018-03-16T10:49:17.003Z,95.60
2018-03-16T10:51:45.377Z,95.80
2018-03-16T10:54:13.656Z,95.40
2018-03-16T10:56:41.927Z,95.40
2018-03-16T10:59:10.313Z,95.50
2018-03-16T11:01:44.268Z,95.50
2018-03-16T11:04:13.444Z,95.40
2018-03-16T11:09:43.116Z,95.10
2018-03-16T11:12:11.423Z,95.10
2018-03-16T11:14:39.691Z,95.10
2018-03-16T11:17:07.981Z,94.80
2018-03-16T11:19:36.353Z,94.90
2018-03-16T11:22:04.720Z,95.10
2018-03-16T11:24:33.104Z,94.80
2018-03-16T11:27:01.492Z,94.60
2018-03-16T11:29:29.768Z,94.90
2018-03-16T11:31:58.035Z,95.00
2018-03-16T11:34:26.419Z,95.00
2018-03-16T11:36:54.789Z,94.90
2018-03-16T11:39:23.163Z,94.80
2018-03-16T11:41:51.439Z,94.70
2018-03-16T11:44:19.711Z,94.60
2018-03-16T11:46:48.093Z,94.70
2018-03-16T11:49:16.400Z,94.90
2018-03-16T11:51:45.577Z,94.30
2018-03-16T11:54:15.383Z,94.30
2018-03-16T11:56:43.656Z,94.30
2018-03-16T11:59:11.932Z,94.30
2018-03-16T12:01:40.212Z,94.20
2018-03-16T12:04:08.487Z,94.10
2018-03-16T12:06:36.762Z,94.30
2018-03-16T12:09:05.145Z,94.00
2018-03-16T12:11:34.924Z,93.90
2018-03-16T12:14:03.225Z,94.20
2018-03-16T12:16:31.497Z,93.70
2018-03-16T12:18:59.870Z,93.70
2018-03-16T12:21:28.171Z,93.70
2018-03-16T12:23:57.220Z,93.60
2018-03-16T12:26:25.492Z,93.60
2018-03-16T12:28:53.803Z,93.50
2018-03-16T12:31:22.074Z,93.60
2018-03-16T12:33:50.452Z,93.50
2018-03-16T12:36:18.829Z,93.80
2018-03-16T12:38:47.112Z,93.20
2018-03-16T12:41:15.475Z,93.40
2018-03-16T12:43:43.963Z,93.40
2018-03-16T12:46:12.236Z,93.20
2018-03-16T12:48:42.020Z,92.90
2018-03-16T12:51:10.295Z,92.90
2018-03-16T12:53:38.577Z,93.00
2018-03-16T12:56:06.848Z,93.30
2018-03-16T12:58:35.148Z,93.10
2018-03-16T13:01:03.447Z,93.00
2018-03-16T13:03:32.510Z,93.30
2018-03-16T13:06:00.888Z,93.30
2018-03-16T13:08:29.267Z,93.30
2018-03-16T13:10:57.556Z,93.50
2018-03-16T13:13:25.820Z,93.60
2018-03-16T13:15:54.199Z,93.70
2018-03-16T13:18:22.471Z,94.20
2018-03-16T13:20:50.753Z,93.90
2018-03-16T13:23:19.275Z,94.10
2018-03-16T13:25:47.527Z,94.00
2018-03-16T13:28:16.574Z,93.40
2018-03-16T13:30:44.854Z,93.40
2018-03-16T13:33:13.147Z,93.50
2018-03-16T13:35:41.436Z,93.50
2018-03-16T13:38:09.715Z,93.50
2018-03-16T13:40:38.077Z,93.40
2018-03-16T13:43:06.360Z,93.50
2018-03-16T13:45:34.740Z,93.60
2018-03-16T13:48:03.286Z,93.60
2018-03-16T13:50:31.555Z,93.20
2018-03-16T13:52:59.837Z,93.60
2018-03-16T13:55:28.148Z,93.80
2018-03-16T13:57:56.515Z,93.80
2018-03-16T14:00:24.895Z,93.50
2018-03-16T14:02:53.217Z,93.60
2018-03-16T14:05:22.269Z,93.40
2018-03-16T14:07:50.644Z,93.40
2018-03-16T14:10:18.978Z,92.70
2018-03-16T14:12:47.307Z,93.50
2018-03-16T14:15:15.680Z,93.50
2018-03-16T14:17:44.062Z,93.40
2018-03-16T14:20:12.508Z,93.50
2018-03-16T14:22:40.816Z,93.90
2018-03-16T14:25:09.112Z,94.20
2018-03-16T14:27:38.155Z,94.30
2018-03-16T14:30:06.429Z,94.30
2018-03-16T14:32:34.719Z,94.60
2018-03-16T14:35:03.120Z,94.00
2018-03-16T14:37:31.396Z,94.50
2018-03-16T14:39:59.760Z,94.40
2018-03-16T14:42:28.051Z,94.30
2018-03-16T14:44:56.428Z,94.80
2018-03-16T14:47:24.709Z,94.40
2018-03-16T14:49:52.988Z,94.00
2018-03-16T14:52:21.357Z,94.00
2018-03-16T14:54:49.647Z,93.90
2018-03-16T14:57:18.760Z,93.90
2018-03-16T14:59:47.103Z,93.90
2018-03-16T15:02:15.489Z,94.20
2018-03-16T15:04:43.755Z,94.20
2018-03-16T15:07:12.125Z,94.40
2018-03-16T15:09:40.503Z,94.00
2018-03-16T15:12:08.818Z,94.30
2018-03-16T15:14:37.100Z,94.30
2018-03-16T15:17:05.393Z,94.30
2018-03-16T15:19:33.684Z,94.50
2018-03-16T15:22:01.987Z,94.20
2018-03-16T15:24:30.234Z,94.60
2018-03-16T15:26:58.524Z,94.40
2018-03-16T15:29:26.870Z,94.30
2018-03-16T15:31:55.142Z,94.40
2018-03-16T15:34:23.419Z,94.40
2018-03-16T15:36:51.704Z,94.40
2018-03-16T15:39:19.982Z,94.30
2018-03-16T15:41:48.285Z,94.10
2018-03-16T15:44:16.601Z,94.20
2018-03-16T15:46:45.619Z,94.50
2018-03-16T15:49:14.795Z,94.50
2018-03-16T15:51:43.867Z,94.20
2018-03-16T15:54:12.891Z,94.30
2018-03-16T15:56:41.185Z,94.30
2018-03-16T15:59:09.459Z,94.40
2018-03-16T16:01:37.718Z,94.60
2018-03-16T16:04:05.979Z,94.80
2018-03-16T16:06:34.285Z,94.80
2018-03-16T16:09:02.540Z,94.90
2018-03-16T16:11:30.841Z,95.00
2018-03-16T16:13:59.284Z,95.00
2018-03-16T16:16:27.586Z,95.00
2018-03-16T16:18:55.870Z,94.80
2018-03-16T16:21:24.168Z,94.80
2018-03-16T16:23:52.413Z,94.90
2018-03-16T16:26:20.767Z,94.90
2018-03-16T16:28:49.028Z,94.90
2018-03-16T16:31:17.300Z,94.90
2018-03-16T16:33:46.326Z,94.70
2018-03-16T16:36:14.588Z,94.70
2018-03-16T16:38:42.891Z,94.70
2018-03-16T16:41:11.138Z,94.90
2018-03-16T16:43:39.393Z,94.80
2018-03-16T16:46:08.427Z,95.00
2018-03-16T16:48:36.722Z,95.00
2018-03-16T16:51:04.973Z,94.90
2018-03-16T16:53:33.229Z,95.00
2018-03-16T16:56:01.525Z,94.70
2018-03-16T16:58:29.811Z,94.90
2018-03-16T17:00:58.076Z,95.00
2018-03-16T17:03:26.321Z,95.10
2018-03-16T17:05:54.582Z,95.10
2018-03-16T17:08:23.606Z,95.30
2018-03-16T17:10:51.919Z,95.30
2018-03-16T17:13:20.171Z,95.40
2018-03-16T17:15:48.554Z,95.50
2018-03-16T17:18:16.810Z,95.90
2018-03-16T17:20:45.071Z,96.10
2018-03-16T17:23:13.482Z,96.10
2018-03-16T17:25:41.743Z,95.70
2018-03-16T17:28:09.998Z,95.60
2018-03-16T17:30:38.312Z,95.30
2018-03-16T17:33:06.677Z,95.00
2018-03-16T17:35:34.931Z,95.00
2018-03-16T17:38:03.240Z,94.60
2018-03-16T17:40:31.490Z,94.90
2018-03-16T17:42:59.752Z,94.60
2018-03-16T17:45:28.001Z,94.70
2018-03-16T17:47:57.021Z,94.80
2018-03-16T17:50:25.341Z,94.70
2018-03-16T17:52:53.813Z,95.00
2018-03-16T17:55:22.106Z,95.00
2018-03-16T17:57:50.336Z,95.10
2018-03-16T18:00:18.625Z,95.00
2018-03-16T18:02:46.969Z,94.90
2018-03-16T18:05:15.996Z,95.00
2018-03-16T18:07:44.243Z,95.00
2018-03-16T18:10:12.521Z,95.00
2018-03-16T18:12:40.792Z,95.00
2018-03-16T18:15:09.818Z,95.30
2018-03-16T18:17:38.066Z,95.30
2018-03-16T18:20:06.371Z,95.10
2018-03-16T18:22:34.626Z,95.10
2018-03-16T18:25:02.930Z,95.00
2018-03-16T18:27:31.203Z,95.00
2018-03-16T18:29:59.479Z,95.10
2018-03-16T18:32:27.731Z,95.10
2018-03-16T18:34:56.093Z,95.10
2018-03-16T18:37:24.397Z,95.20
2018-03-16T18:39:52.652Z,95.20
2018-03-16T18:42:20.905Z,95.70
2018-03-16T18:44:50.126Z,95.40
2018-03-16T18:47:18.393Z,95.40
2018-03-16T18:49:46.697Z,95.20
2018-03-16T18:52:14.961Z,95.20
2018-03-16T18:54:43.237Z,95.20
2018-03-16T18:57:11.527Z,95.30
2018-03-16T18:59:39.786Z,95.30
2018-03-16T19:02:08.034Z,95.20
2018-03-16T19:04:36.482Z,95.20
2018-03-16T19:07:04.837Z,94.90
2018-03-16T19:09:33.095Z,95.50
2018-03-16T19:12:01.390Z,95.40
2018-03-16T19:14:29.649Z,95.20
2018-03-16T19:16:57.907Z,95.10
2018-03-16T19:19:26.163Z,95.30
2018-03-16T19:21:55.306Z,95.40
2018-03-16T19:24:23.666Z,95.40
2018-03-16T19:26:51.914Z,95.20
2018-03-16T19:29:20.949Z,95.30
2018-03-16T19:31:49.227Z,95.30
2018-03-16T19:34:17.478Z,95.30
2018-03-16T19:36:45.766Z,95.40
2018-03-16T19:39:14.018Z,95.30
2018-03-16T19:41:42.285Z,95.20
2018-03-16T19:44:11.322Z,95.40
2018-03-16T19:46:39.595Z,95.40
2018-03-16T19:49:07.845Z,95.40
2018-03-16T19:51:36.152Z,95.40
2018-03-16T19:54:04.403Z,95.30
2018-03-16T19:56:32.726Z,95.40
2018-03-16T19:59:00.978Z,95.40
2018-03-16T20:01:29.247Z,95.30
2018-03-16T20:03:57.530Z,95.40
2018-03-16T20:06:25.796Z,95.40
2018-03-16T20:08:54.033Z,95.30
2018-03-16T20:11:23.074Z,95.10
2018-03-16T20:13:51.330Z,95.10
2018-03-16T20:16:19.574Z,95.30
2018-03-16T20:18:48.597Z,95.30
2018-03-16T20:21:16.848Z,95.30
2018-03-16T20:23:45.788Z,95.20
2018-03-16T20:26:14.041Z,95.20
2018-03-16T20:28:42.317Z,95.50
2018-03-16T20:31:10.581Z,95.30
2018-03-16T20:33:38.846Z,95.30
2018-03-16T20:36:07.106Z,95.10
2018-03-16T20:38:36.133Z,95.40
2018-03-16T20:41:04.422Z,95.40
2018-03-16T20:43:32.698Z,95.40
2018-03-16T20:46:00.950Z,95.10
2018-03-16T20:48:29.206Z,95.10
2018-03-16T20:50:58.219Z,94.90
2018-03-16T20:53:26.476Z,94.90
2018-03-16T20:55:55.493Z,95.20
2018-03-16T20:58:23.773Z,95.20
2018-03-16T21:00:52.033Z,95.10
2018-03-16T21:03:20.338Z,95.30
2018-03-16T21:05:48.925Z,95.20
2018-03-16T21:08:17.324Z,94.90
2018-03-16T21:10:45.574Z,95.10
2018-03-16T21:13:13.859Z,95.20
2018-03-16T21:15:42.110Z,95.00
2018-03-16T21:18:10.741Z,95.00
2018-03-16T21:20:38.985Z,95.00
2018-03-16T21:23:07.362Z,95.00
2018-03-16T21:25:35.654Z,95.10
2018-03-16T21:28:03.958Z,95.10
2018-03-16T21:30:33.070Z,95.00
2018-03-16T21:33:02.167Z,95.00
2018-03-16T21:35:31.180Z,95.10
2018-03-16T21:37:59.705Z,95.10
2018-03-16T21:40:28.431Z,95.10
2018-03-16T21:42:57.639Z,94.90
2018-03-16T21:45:25.881Z,94.90
2018-03-16T21:47:55.034Z,94.80
2018-03-16T21:50:23.344Z,94.80
2018-03-16T21:52:51.610Z,94.80
2018-03-16T21:55:20.035Z,94.70
2018-03-16T21:57:48.551Z,94.80
2018-03-16T22:00:17.796Z,94.80
2018-03-16T22:02:46.169Z,94.90
2018-03-16T22:05:15.198Z,95.00
2018-03-16T22:07:43.450Z,95.00
2018-03-16T22:10:12.465Z,95.00
2018-03-16T22:12:40.719Z,94.90
2018-03-16T22:15:09.742Z,95.00
2018-03-16T22:17:37.990Z,95.00
2018-03-16T22:20:07.058Z,95.00
2018-03-16T22:22:35.398Z,95.00
2018-03-16T22:25:03.654Z,94.90
2018-03-16T22:27:31.905Z,95.00
2018-03-16T22:30:01.037Z,95.10
2018-03-16T22:32:29.334Z,95.10
2018-03-16T22:34:57.557Z,94.70
2018-03-16T22:37:25.814Z,94.70
2018-03-16T22:39:54.860Z,95.00
2018-03-16T22:42:23.139Z,94.70
2018-03-16T22:44:51.418Z,94.50
2018-03-16T22:47:19.694Z,94.60
2018-03-16T22:49:47.957Z,94.70
2018-03-16T22:52:16.216Z,94.80
2018-03-16T22:54:44.475Z,94.50
2018-03-16T22:57:13.502Z,94.50
2018-03-16T22:59:41.760Z,94.50
2018-03-16T23:02:10.029Z,94.60
2018-03-16T23:04:38.290Z,94.60
2018-03-16T23:07:07.321Z,94.60
2018-03-16T23:09:35.583Z,94.60
2018-03-16T23:12:03.878Z,94.70
2018-03-16T23:14:32.146Z,94.50
2018-03-16T23:17:00.389Z,94.70
2018-03-16T23:19:28.698Z,94.80
2018-03-16T23:21:56.965Z,94.80
2018-03-16T23:24:25.279Z,94.90
2018-03-16T23:26:53.976Z,94.80
2018-03-16T23:29:22.324Z,94.80
2018-03-16T23:31:50.586Z,94.70
2018-03-16T23:34:18.833Z,94.80
2018-03-16T23:36:47.100Z,94.70
2018-03-16T23:39:15.357Z,95.00
2018-03-16T23:41:45.129Z,95.10
2018-03-16T23:44:13.398Z,95.00
2018-03-16T23:46:41.658Z,95.20
2018-03-16T23:49:09.953Z,95.20
2018-03-16T23:51:38.302Z,95.10
2018-03-16T23:54:06.565Z,94.70
2018-03-16T23:56:35.701Z,94.60
2018-03-16T23:59:03.949Z,94.60
